createdAt,value
2022-10-03T00:00:03.124Z,57.53
2022-10-03T00:03:25.857Z,57.55
2022-10-03T00:06:15.498Z,59.33
2022-10-03T00:09:19.548Z,59.67
2022-10-03T00:12:19.270Z,59.40
2022-10-03T00:15:12.706Z,60.88
2022-10-03T00:18:10.387Z,60.97
2022-10-03T00:21:10.792Z,59.95
2022-10-03T00:24:07.482Z,59.91
2022-10-03T00:26:53.989Z,60.08
2022-10-03T00:29:51.985Z,60.51
2022-10-03T00:32:56.934Z,60.44
2022-10-03T00:35:54.093Z,60.83
2022-10-03T00:39:02.794Z,60.29
2022-10-03T00:42:17.683Z,60.21
2022-10-03T00:45:36.485Z,61.29
2022-10-03T00:48:46.127Z,61.14
2022-10-03T00:51:46.458Z,60.95
2022-10-03T00:54:45.721Z,60.64
2022-10-03T00:58:00.787Z,61.21
2022-10-03T01:00:52.131Z,61.20
2022-10-03T01:03:47.385Z,61.23
2022-10-03T01:06:42.344Z,61.06
2022-10-03T01:09:40.467Z,61.40
2022-10-03T01:12:50.183Z,61.42
2022-10-03T01:15:48.198Z,61.91
2022-10-03T01:18:46.308Z,61.61
2022-10-03T01:21:41.727Z,61.40
2022-10-03T01:24:55.330Z,61.54
2022-10-03T01:28:01.661Z,61.75
2022-10-03T01:30:52.267Z,61.26
2022-10-03T01:33:43.367Z,60.80
2022-10-03T01:36:33.922Z,60.91
2022-10-03T01:39:25.293Z,61.08
2022-10-03T01:42:17.397Z,61.06
2022-10-03T01:45:13.296Z,61.44
2022-10-03T01:48:03.802Z,62.89
2022-10-03T01:51:04.234Z,61.00
2022-10-03T01:54:08.521Z,60.76
2022-10-03T01:56:59.092Z,60.77
2022-10-03T01:59:47.612Z,60.74
2022-10-03T02:02:38.021Z,60.96
2022-10-03T02:05:38.371Z,60.28
2022-10-03T02:08:30.253Z,60.64
2022-10-03T02:11:29.791Z,60.44
2022-10-03T02:14:24.768Z,61.25
2022-10-03T02:17:16.607Z,61.00
2022-10-03T02:20:08.696Z,60.99
2022-10-03T02:22:56.450Z,60.99
2022-10-03T02:25:55.009Z,61.96
2022-10-03T02:29:07.134Z,62.36
2022-10-03T02:32:13.975Z,61.91
2022-10-03T02:35:37.422Z,61.99
2022-10-03T02:38:49.673Z,62.79
2022-10-03T02:41:52.375Z,61.73
2022-10-03T02:45:03.060Z,61.95
2022-10-03T02:48:30.641Z,61.43
2022-10-03T02:51:37.141Z,61.68
2022-10-03T02:54:50.703Z,60.59
2022-10-03T02:58:17.450Z,61.77
2022-10-03T03:01:28.490Z,61.52
2022-10-03T03:04:41.948Z,62.67
2022-10-03T03:07:38.369Z,62.46
2022-10-03T03:10:38.750Z,64.30
2022-10-03T03:13:51.551Z,63.57
2022-10-03T03:16:49.920Z,63.31
2022-10-03T03:20:13.100Z,63.22
2022-10-03T03:23:12.673Z,63.55
2022-10-03T03:26:15.047Z,63.18
2022-10-03T03:29:10.687Z,62.78
2022-10-03T03:32:03.711Z,62.74
2022-10-03T03:34:59.440Z,64.46
2022-10-03T03:37:53.421Z,62.90
2022-10-03T03:40:46.556Z,62.78
2022-10-03T03:43:44.790Z,62.46
2022-10-03T03:46:47.977Z,62.18
2022-10-03T03:49:53.584Z,64.08
2022-10-03T03:52:53.507Z,64.76
2022-10-03T03:55:56.426Z,63.00
2022-10-03T03:58:42.660Z,63.07
2022-10-03T04:01:49.265Z,64.21
2022-10-03T04:04:53.229Z,63.59
2022-10-03T04:07:52.356Z,64.02
2022-10-03T04:10:49.699Z,63.86
2022-10-03T04:14:03.842Z,63.99
2022-10-03T04:17:37.263Z,64.36
2022-10-03T04:20:35.691Z,64.22
2022-10-03T04:23:34.070Z,64.34
2022-10-03T04:26:33.545Z,64.45
2022-10-03T04:29:41.111Z,65.12
2022-10-03T04:32:47.727Z,65.38
2022-10-03T04:36:07.000Z,64.68
2022-10-03T04:39:00.756Z,65.07
2022-10-03T04:41:53.115Z,65.40
2022-10-03T04:44:51.241Z,65.11
2022-10-03T04:47:46.037Z,64.59
2022-10-03T04:50:38.677Z,62.95
2022-10-03T04:53:41.099Z,62.48
2022-10-03T04:56:39.643Z,62.18
2022-10-03T04:59:49.403Z,61.02
2022-10-03T05:02:47.511Z,61.38
2022-10-03T05:05:51.654Z,60.94
2022-10-03T05:08:42.401Z,59.71
2022-10-03T05:11:39.623Z,59.64
2022-10-03T05:14:33.513Z,59.37
2022-10-03T05:17:24.325Z,59.22
2022-10-03T05:20:24.086Z,59.01
2022-10-03T05:23:20.463Z,58.18
2022-10-03T05:26:43.182Z,59.41
2022-10-03T05:29:25.312Z,59.80
2022-10-03T05:32:21.961Z,59.75
2022-10-03T05:35:29.569Z,59.91
2022-10-03T05:38:37.398Z,60.09
2022-10-03T05:41:26.227Z,60.07
2022-10-03T05:44:26.639Z,59.79
2022-10-03T05:47:27.680Z,59.75
2022-10-03T05:50:42.347Z,59.40
2022-10-03T05:53:54.822Z,59.33
2022-10-03T05:57:01.507Z,58.01
2022-10-03T06:00:12.271Z,57.83
2022-10-03T06:03:31.864Z,56.98
2022-10-03T06:06:24.820Z,55.30
2022-10-03T06:09:39.157Z,54.81
2022-10-03T06:12:31.552Z,52.03
2022-10-03T06:15:35.853Z,50.46
2022-10-03T06:18:51.910Z,49.54
2022-10-03T06:22:26.977Z,48.35
2022-10-03T06:25:46.134Z,47.51
2022-10-03T06:29:00.121Z,46.89
2022-10-03T06:32:14.147Z,46.64
2022-10-03T06:35:33.612Z,46.06
2022-10-03T06:38:58.659Z,47.69
2022-10-03T06:42:15.707Z,45.62
2022-10-03T06:45:39.190Z,46.01
2022-10-03T06:48:44.886Z,46.53
2022-10-03T06:51:52.776Z,46.30
2022-10-03T06:55:14.073Z,46.60
2022-10-03T06:58:20.666Z,46.10
2022-10-03T07:01:34.091Z,45.55
2022-10-03T07:04:44.845Z,46.56
2022-10-03T07:08:07.922Z,44.65
2022-10-03T07:11:06.164Z,46.44
2022-10-03T07:14:16.958Z,46.03
2022-10-03T07:17:28.441Z,46.88
2022-10-03T07:20:34.174Z,43.58
2022-10-03T07:24:03.254Z,44.34
2022-10-03T07:27:09.045Z,45.96
2022-10-03T07:30:06.713Z,47.96
2022-10-03T07:33:27.225Z,47.82
2022-10-03T07:36:50.092Z,46.31
2022-10-03T07:40:03.316Z,45.87
2022-10-03T07:43:21.757Z,45.88
2022-10-03T07:46:35.460Z,45.27
2022-10-03T07:49:43.531Z,45.22
2022-10-03T07:52:54.284Z,46.40
2022-10-03T07:56:08.559Z,46.05
2022-10-03T07:59:05.621Z,46.28
2022-10-03T08:02:09.443Z,45.25
2022-10-03T08:05:12.788Z,44.84
2022-10-03T08:08:21.748Z,43.13
2022-10-03T08:11:28.961Z,44.31
2022-10-03T08:14:24.616Z,44.58
2022-10-03T08:17:32.640Z,43.84
2022-10-03T08:20:41.048Z,43.37
2022-10-03T08:23:54.551Z,42.49
2022-10-03T08:27:04.233Z,43.01
2022-10-03T08:30:15.492Z,41.46
2022-10-03T08:33:27.879Z,41.73
2022-10-03T08:36:46.754Z,41.32
2022-10-03T08:39:58.976Z,42.22
2022-10-03T08:43:20.826Z,42.66
2022-10-03T08:46:28.400Z,42.26
2022-10-03T08:49:30.752Z,42.61
2022-10-03T08:52:32.912Z,41.74
2022-10-03T08:55:45.678Z,41.05
2022-10-03T08:59:17.176Z,40.70
2022-10-03T09:02:44.112Z,39.97
2022-10-03T09:06:01.394Z,39.72
2022-10-03T09:09:03.717Z,40.30
2022-10-03T09:12:09.852Z,41.31
2022-10-03T09:15:30.817Z,41.94
2022-10-03T09:18:51.317Z,42.72
2022-10-03T09:22:14.051Z,44.46
2022-10-03T09:25:22.963Z,44.66
2022-10-03T09:28:37.346Z,45.99
2022-10-03T09:31:45.373Z,45.60
2022-10-03T09:35:09.826Z,50.15
2022-10-03T09:38:28.702Z,52.79
2022-10-03T09:41:42.296Z,53.08
2022-10-03T09:45:10.229Z,54.30
2022-10-03T09:48:31.455Z,55.78
2022-10-03T09:51:27.002Z,56.36
2022-10-03T09:54:51.847Z,57.04
2022-10-03T09:58:23.596Z,57.53
2022-10-03T10:01:22.137Z,57.20
2022-10-03T10:04:54.309Z,57.14
2022-10-03T10:08:17.083Z,57.84
2022-10-03T10:11:32.971Z,58.01
2022-10-03T10:15:11.360Z,58.83
2022-10-03T10:18:34.603Z,59.77
2022-10-03T10:22:09.408Z,60.61
2022-10-03T10:25:33.406Z,59.66
2022-10-03T10:29:01.154Z,61.66
2022-10-03T10:32:21.940Z,60.54
2022-10-03T10:35:30.841Z,61.35
2022-10-03T10:38:28.914Z,59.33
2022-10-03T10:42:02.691Z,58.96
2022-10-03T10:45:31.176Z,58.45
2022-10-03T10:49:03.717Z,58.84
2022-10-03T10:52:42.031Z,59.29
2022-10-03T10:56:19.352Z,60.29
2022-10-03T10:59:47.534Z,59.81
2022-10-03T11:03:07.823Z,63.00
2022-10-03T11:06:37.158Z,62.13
2022-10-03T11:09:54.173Z,61.25
2022-10-03T11:13:14.169Z,60.75
2022-10-03T11:16:40.675Z,59.89
2022-10-03T11:20:10.701Z,61.10
2022-10-03T11:23:40.158Z,62.64
2022-10-03T11:26:59.391Z,61.69
2022-10-03T11:30:18.400Z,60.35
2022-10-03T11:33:47.830Z,61.41
2022-10-03T11:37:07.407Z,59.49
2022-10-03T11:40:01.052Z,60.25
2022-10-03T11:42:58.597Z,58.01
2022-10-03T11:45:48.942Z,58.32
2022-10-03T11:48:41.787Z,58.79
2022-10-03T11:51:40.793Z,59.60
2022-10-03T11:54:32.430Z,59.94
2022-10-03T11:57:23.298Z,59.89
2022-10-03T12:00:17.715Z,60.66
2022-10-03T12:03:22.915Z,60.42
2022-10-03T12:06:30.605Z,59.10
2022-10-03T12:09:24.394Z,57.84
2022-10-03T12:12:16.372Z,57.84
2022-10-03T12:15:11.464Z,58.48
2022-10-03T12:18:04.717Z,58.10
2022-10-03T12:21:04.698Z,57.50
2022-10-03T12:24:18.384Z,56.57
2022-10-03T12:27:13.163Z,56.00
2022-10-03T12:29:59.996Z,56.79
2022-10-03T12:32:58.858Z,58.12
2022-10-03T12:35:52.272Z,58.24
2022-10-03T12:38:55.050Z,57.97
2022-10-03T12:41:56.252Z,57.79
2022-10-03T12:44:51.945Z,58.42
2022-10-03T12:48:00.688Z,61.51
2022-10-03T12:50:55.205Z,61.07
2022-10-03T12:53:51.982Z,61.53
2022-10-03T12:56:46.650Z,62.33
2022-10-03T12:59:38.425Z,62.76
2022-10-03T13:02:28.038Z,60.75
2022-10-03T13:05:33.489Z,60.05
2022-10-03T13:08:40.514Z,60.45
2022-10-03T13:11:33.501Z,61.76
2022-10-03T13:14:43.580Z,59.65
2022-10-03T13:17:36.243Z,58.83
2022-10-03T13:20:30.141Z,59.53
2022-10-03T13:23:24.693Z,59.10
2022-10-03T13:26:18.459Z,58.20
2022-10-03T13:29:25.452Z,57.24
2022-10-03T13:32:18.590Z,56.78
2022-10-03T13:35:49.396Z,57.71
2022-10-03T13:39:02.719Z,58.36
2022-10-03T13:42:04.625Z,59.55
2022-10-03T13:44:54.578Z,58.15
2022-10-03T13:47:48.126Z,58.93
2022-10-03T13:50:42.364Z,59.61
2022-10-03T13:53:45.222Z,60.44
2022-10-03T13:56:51.360Z,60.44
2022-10-03T13:59:48.699Z,60.29
2022-10-03T14:02:52.333Z,60.15
2022-10-03T14:06:01.397Z,60.46
2022-10-03T14:09:17.756Z,61.22
2022-10-03T14:12:24.639Z,59.85
2022-10-03T14:15:25.920Z,60.62
2022-10-03T14:18:21.547Z,60.04
2022-10-03T14:21:27.107Z,59.72
2022-10-03T14:24:27.453Z,60.33
2022-10-03T14:27:36.818Z,59.21
2022-10-03T14:30:23.244Z,58.96
2022-10-03T14:33:18.634Z,58.51
2022-10-03T14:36:23.199Z,58.40
2022-10-03T14:39:23.840Z,58.29
2022-10-03T14:42:51.494Z,58.15
2022-10-03T14:45:44.215Z,58.23
2022-10-03T14:48:31.440Z,57.89
2022-10-03T14:51:20.880Z,57.61
2022-10-03T14:54:08.652Z,57.45
2022-10-03T14:56:53.790Z,57.90
2022-10-03T14:59:37.811Z,57.59
2022-10-03T15:02:30.800Z,58.20
2022-10-03T15:05:21.822Z,58.54
2022-10-03T15:08:16.186Z,57.96
2022-10-03T15:11:00.583Z,58.70
2022-10-03T15:13:48.511Z,58.35
2022-10-03T15:16:36.028Z,59.10
2022-10-03T15:19:26.173Z,58.58
2022-10-03T15:22:24.561Z,58.90
2022-10-03T15:25:15.033Z,58.58
2022-10-03T15:28:04.764Z,59.43
2022-10-03T15:30:50.936Z,58.73
2022-10-03T15:33:37.226Z,59.19
2022-10-03T15:36:26.322Z,59.45
2022-10-03T15:39:21.198Z,58.52
2022-10-03T15:42:22.956Z,58.40
2022-10-03T15:45:08.455Z,59.49
2022-10-03T15:47:53.143Z,59.92
2022-10-03T15:50:43.655Z,58.98
2022-10-03T15:53:36.570Z,59.39
2022-10-03T15:56:27.488Z,59.69
2022-10-03T15:59:20.611Z,60.54
2022-10-03T16:02:10.692Z,59.66
2022-10-03T16:04:57.306Z,59.74
2022-10-03T16:07:52.354Z,59.24
2022-10-03T16:10:40.395Z,60.06
2022-10-03T16:13:36.106Z,60.53
2022-10-03T16:16:24.297Z,61.66
2022-10-03T16:19:33.526Z,61.65
2022-10-03T16:22:23.861Z,62.65
2022-10-03T16:25:15.294Z,62.84
2022-10-03T16:28:06.410Z,62.29
2022-10-03T16:30:58.585Z,61.54
2022-10-03T16:33:48.438Z,63.73
2022-10-03T16:36:34.634Z,64.57
2022-10-03T16:39:25.316Z,65.62
2022-10-03T16:42:18.714Z,67.27
2022-10-03T16:45:05.180Z,67.05
2022-10-03T16:48:11.360Z,67.12
2022-10-03T16:50:54.399Z,66.72
2022-10-03T16:53:44.360Z,66.62
2022-10-03T16:56:34.320Z,66.76
2022-10-03T16:59:20.618Z,67.83
2022-10-03T17:02:08.143Z,68.12
2022-10-03T17:04:56.254Z,67.93
2022-10-03T17:07:43.677Z,69.46
2022-10-03T17:10:37.454Z,69.96
2022-10-03T17:13:24.524Z,69.92
2022-10-03T17:16:15.828Z,69.93
2022-10-03T17:19:16.154Z,70.40
2022-10-03T17:22:07.117Z,71.67
2022-10-03T17:24:57.393Z,71.76
2022-10-03T17:27:43.385Z,71.98
2022-10-03T17:30:34.322Z,70.93
2022-10-03T17:33:24.224Z,70.35
2022-10-03T17:36:40.361Z,68.89
2022-10-03T17:39:38.684Z,69.05
2022-10-03T17:42:40.752Z,68.78
2022-10-03T17:45:34.562Z,68.37
2022-10-03T17:48:21.105Z,69.55
2022-10-03T17:51:31.570Z,70.65
2022-10-03T17:54:20.905Z,71.06
2022-10-03T17:57:11.097Z,72.01
2022-10-03T18:00:02.301Z,74.43
2022-10-03T18:02:56.964Z,72.46
2022-10-03T18:05:45.002Z,72.10
2022-10-03T18:08:31.257Z,71.77
2022-10-03T18:11:23.470Z,71.48
2022-10-03T18:14:17.702Z,71.14
2022-10-03T18:17:08.396Z,71.79
2022-10-03T18:20:06.115Z,72.04
2022-10-03T18:22:56.777Z,71.86
2022-10-03T18:26:19.661Z,71.92
2022-10-03T18:29:22.454Z,71.35
2022-10-03T18:32:15.035Z,72.04
2022-10-03T18:35:10.894Z,71.10
2022-10-03T18:38:02.035Z,71.75
2022-10-03T18:40:51.776Z,72.17
2022-10-03T18:43:44.909Z,73.03
2022-10-03T18:46:35.166Z,72.18
2022-10-03T18:49:39.632Z,73.00
2022-10-03T18:52:31.204Z,73.22
2022-10-03T18:55:21.125Z,73.59
2022-10-03T18:58:15.240Z,73.35
2022-10-03T19:01:04.907Z,73.05
2022-10-03T19:03:53.932Z,72.28
2022-10-03T19:06:42.549Z,71.08
2022-10-03T19:09:31.004Z,70.79
2022-10-03T19:12:19.863Z,71.26
2022-10-03T19:15:20.032Z,70.55
2022-10-03T19:18:16.480Z,69.86
2022-10-03T19:21:05.894Z,71.16
2022-10-03T19:23:59.003Z,70.91
2022-10-03T19:26:47.481Z,71.72
2022-10-03T19:29:36.059Z,71.88
2022-10-03T19:32:25.368Z,71.47
2022-10-03T19:35:15.393Z,70.75
2022-10-03T19:38:05.613Z,69.85
2022-10-03T19:40:55.921Z,68.98
2022-10-03T19:43:44.917Z,68.33
2022-10-03T19:46:52.216Z,68.34
2022-10-03T19:49:57.716Z,68.12
2022-10-03T19:52:41.991Z,68.11
2022-10-03T19:55:34.250Z,68.62
2022-10-03T19:58:23.981Z,69.19
2022-10-03T20:01:10.128Z,69.15
2022-10-03T20:03:57.991Z,69.33
2022-10-03T20:07:01.099Z,70.72
2022-10-03T20:09:58.043Z,71.14
2022-10-03T20:12:49.304Z,71.60
2022-10-03T20:15:41.986Z,72.34
2022-10-03T20:18:30.927Z,72.74
2022-10-03T20:21:20.000Z,72.83
2022-10-03T20:24:12.519Z,73.73
2022-10-03T20:27:03.910Z,73.92
2022-10-03T20:30:00.458Z,74.67
2022-10-03T20:32:46.976Z,75.69
2022-10-03T20:35:37.804Z,75.98
2022-10-03T20:38:31.791Z,75.18
2022-10-03T20:41:21.052Z,75.00
2022-10-03T20:44:16.604Z,74.81
2022-10-03T20:47:07.526Z,74.98
2022-10-03T20:49:56.314Z,75.06
2022-10-03T20:52:40.437Z,74.25
2022-10-03T20:55:26.685Z,73.44
2022-10-03T20:58:26.611Z,72.80
2022-10-03T21:01:20.139Z,72.22
2022-10-03T21:04:15.207Z,72.15
2022-10-03T21:07:05.180Z,71.92
2022-10-03T21:09:57.378Z,72.50
2022-10-03T21:12:47.195Z,73.50
2022-10-03T21:15:40.703Z,73.38
2022-10-03T21:18:26.774Z,72.69
2022-10-03T21:21:17.203Z,72.74
2022-10-03T21:24:07.643Z,72.44
2022-10-03T21:26:58.484Z,73.34
2022-10-03T21:29:54.938Z,72.28
2022-10-03T21:32:57.558Z,73.93
2022-10-03T21:35:43.227Z,72.93
2022-10-03T21:38:31.028Z,73.41
2022-10-03T21:41:25.299Z,72.42
2022-10-03T21:44:18.152Z,72.08
2022-10-03T21:47:19.809Z,72.11
2022-10-03T21:50:07.367Z,71.25
2022-10-03T21:53:15.650Z,70.01
2022-10-03T21:56:22.413Z,68.95
2022-10-03T21:59:30.925Z,68.91
2022-10-03T22:02:25.156Z,69.00
2022-10-03T22:05:18.016Z,69.15
2022-10-03T22:08:13.859Z,68.90
2022-10-03T22:11:06.486Z,68.72
2022-10-03T22:14:00.567Z,70.01
2022-10-03T22:16:50.536Z,68.77
2022-10-03T22:19:40.089Z,68.86
2022-10-03T22:22:38.704Z,69.71
2022-10-03T22:25:42.486Z,69.19
2022-10-03T22:28:38.773Z,70.01
2022-10-03T22:31:31.449Z,70.42
2022-10-03T22:34:28.980Z,70.16
2022-10-03T22:37:14.442Z,69.75
2022-10-03T22:40:00.485Z,69.32
2022-10-03T22:42:47.291Z,68.70
2022-10-03T22:45:34.445Z,68.18
2022-10-03T22:48:23.999Z,66.99
2022-10-03T22:51:13.084Z,67.10
2022-10-03T22:54:03.950Z,66.83
2022-10-03T22:56:53.886Z,67.09
2022-10-03T22:59:43.837Z,67.15
2022-10-03T23:02:29.401Z,67.40
2022-10-03T23:05:19.492Z,67.16
2022-10-03T23:08:09.978Z,66.43
2022-10-03T23:11:00.205Z,66.16
2022-10-03T23:13:45.665Z,66.68
2022-10-03T23:16:48.775Z,67.32
2022-10-03T23:19:46.600Z,67.30
2022-10-03T23:22:35.667Z,67.83
2022-10-03T23:25:24.335Z,67.65
2022-10-03T23:28:20.270Z,67.70
2022-10-03T23:31:05.838Z,68.55
2022-10-03T23:33:51.412Z,68.02
2022-10-03T23:36:35.133Z,68.46
2022-10-03T23:39:33.270Z,68.69
2022-10-03T23:42:20.484Z,66.98
2022-10-03T23:45:13.934Z,67.27
2022-10-03T23:48:02.647Z,68.11
2022-10-03T23:50:51.300Z,67.95
2022-10-03T23:53:40.279Z,68.62
2022-10-03T23:56:32.088Z,67.83
2022-10-03T23:59:25.638Z,68.60
